sensor_id;sensor_type;location;lat;lon;timestamp;temperature;humidity
20068;DHT22;10194;50.824;7.134;2022-09-09T00:03:53;16.50;99.90
20068;DHT22;10194;50.824;7.134;2022-09-09T00:09:57;16.40;99.90
20068;DHT22;10194;50.824;7.134;2022-09-09T00:12:57;16.40;99.90
20068;DHT22;10194;50.824;7.134;2022-09-09T00:21:41;16.40;99.90
20068;DHT22;10194;50.824;7.134;2022-09-09T00:24:24;16.40;99.90
20068;DHT22;10194;50.824;7.134;2022-09-09T00:26:59;16.30;99.90
20068;DHT22;10194;50.824;7.134;2022-09-09T00:32:37;16.10;99.90
20068;DHT22;10194;50.824;7.134;2022-09-09T00:35:17;16.10;99.90
20068;DHT22;10194;50.824;7.134;2022-09-09T00:37:48;16.10;99.90
20068;DHT22;10194;50.824;7.134;2022-09-09T00:40:33;16.10;99.90
20068;DHT22;10194;50.824;7.134;2022-09-09T00:43:30;16.00;99.90
20068;DHT22;10194;50.824;7.134;2022-09-09T00:54:31;16.00;99.90
20068;DHT22;10194;50.824;7.134;2022-09-09T00:57:16;16.00;99.90
20068;DHT22;10194;50.824;7.134;2022-09-09T00:59:51;16.10;99.90
20068;DHT22;10194;50.824;7.134;2022-09-09T01:02:27;16.10;99.90
20068;DHT22;10194;50.824;7.134;2022-09-09T01:04:54;16.20;99.90
20068;DHT22;10194;50.824;7.134;2022-09-09T01:07:26;16.30;99.90
20068;DHT22;10194;50.824;7.134;2022-09-09T01:09:54;16.40;99.90
20068;DHT22;10194;50.824;7.134;2022-09-09T01:12:29;16.40;99.90
20068;DHT22;10194;50.824;7.134;2022-09-09T01:15:26;16.40;99.90
20068;DHT22;10194;50.824;7.134;2022-09-09T01:18:00;16.50;99.90
20068;DHT22;10194;50.824;7.134;2022-09-09T01:20:57;16.40;99.90
20068;DHT22;10194;50.824;7.134;2022-09-09T01:26:31;16.30;99.90
20068;DHT22;10194;50.824;7.134;2022-09-09T01:29:17;16.30;99.90
20068;DHT22;10194;50.824;7.134;2022-09-09T01:32:35;16.30;99.90
20068;DHT22;10194;50.824;7.134;2022-09-09T01:34:57;16.30;99.90
20068;DHT22;10194;50.824;7.134;2022-09-09T01:37:23;16.40;99.90
20068;DHT22;10194;50.824;7.134;2022-09-09T01:39:49;16.50;99.90
20068;DHT22;10194;50.824;7.134;2022-09-09T01:42:16;16.60;99.90
20068;DHT22;10194;50.824;7.134;2022-09-09T01:44:42;16.60;99.90
20068;DHT22;10194;50.824;7.134;2022-09-09T01:47:08;16.60;99.90
20068;DHT22;10194;50.824;7.134;2022-09-09T01:49:34;16.50;99.90
20068;DHT22;10194;50.824;7.134;2022-09-09T01:52:00;16.50;99.90
20068;DHT22;10194;50.824;7.134;2022-09-09T01:54:28;16.40;99.90
20068;DHT22;10194;50.824;7.134;2022-09-09T01:57:15;16.40;99.90
20068;DHT22;10194;50.824;7.134;2022-09-09T02:08:49;16.60;99.90
20068;DHT22;10194;50.824;7.134;2022-09-09T02:11:24;16.60;99.90
20068;DHT22;10194;50.824;7.134;2022-09-09T02:14:05;16.70;99.90
20068;DHT22;10194;50.824;7.134;2022-09-09T02:19:55;16.60;99.90
20068;DHT22;10194;50.824;7.134;2022-09-09T02:22:26;16.60;99.90
20068;DHT22;10194;50.824;7.134;2022-09-09T02:24:56;16.60;99.90
20068;DHT22;10194;50.824;7.134;2022-09-09T02:27:24;16.50;99.90
20068;DHT22;10194;50.824;7.134;2022-09-09T02:29:51;16.50;99.90
20068;DHT22;10194;50.824;7.134;2022-09-09T02:32:21;16.40;99.90
20068;DHT22;10194;50.824;7.134;2022-09-09T02:34:57;16.50;99.90
20068;DHT22;10194;50.824;7.134;2022-09-09T02:37:29;16.50;99.90
20068;DHT22;10194;50.824;7.134;2022-09-09T02:39:59;16.50;99.90
20068;DHT22;10194;50.824;7.134;2022-09-09T02:42:24;16.60;99.90
20068;DHT22;10194;50.824;7.134;2022-09-09T02:44:50;16.60;99.90
20068;DHT22;10194;50.824;7.134;2022-09-09T02:50:25;16.70;99.90
20068;DHT22;10194;50.824;7.134;2022-09-09T02:53:19;16.60;99.90
20068;DHT22;10194;50.824;7.134;2022-09-09T02:55:49;16.40;99.90
20068;DHT22;10194;50.824;7.134;2022-09-09T02:58:31;16.40;99.90
20068;DHT22;10194;50.824;7.134;2022-09-09T03:00:57;16.40;99.90
20068;DHT22;10194;50.824;7.134;2022-09-09T03:03:24;16.40;99.90
20068;DHT22;10194;50.824;7.134;2022-09-09T03:05:50;16.50;99.90
20068;DHT22;10194;50.824;7.134;2022-09-09T03:08:16;16.50;99.90
20068;DHT22;10194;50.824;7.134;2022-09-09T03:10:42;16.50;99.90
20068;DHT22;10194;50.824;7.134;2022-09-09T03:13:08;16.50;99.90
20068;DHT22;10194;50.824;7.134;2022-09-09T03:15:34;16.40;99.90
20068;DHT22;10194;50.824;7.134;2022-09-09T03:18:00;16.40;99.90
20068;DHT22;10194;50.824;7.134;2022-09-09T03:20:28;16.50;99.90
20068;DHT22;10194;50.824;7.134;2022-09-09T03:22:55;16.50;99.90
20068;DHT22;10194;50.824;7.134;2022-09-09T03:25:22;16.50;99.90
20068;DHT22;10194;50.824;7.134;2022-09-09T03:27:52;16.50;99.90
20068;DHT22;10194;50.824;7.134;2022-09-09T03:30:24;16.50;99.90
20068;DHT22;10194;50.824;7.134;2022-09-09T03:32:51;16.50;99.90
20068;DHT22;10194;50.824;7.134;2022-09-09T03:35:17;16.50;99.90
20068;DHT22;10194;50.824;7.134;2022-09-09T03:37:44;16.50;99.90
20068;DHT22;10194;50.824;7.134;2022-09-09T03:40:10;16.60;99.90
20068;DHT22;10194;50.824;7.134;2022-09-09T03:42:37;16.70;99.90
20068;DHT22;10194;50.824;7.134;2022-09-09T03:45:04;16.70;99.90
20068;DHT22;10194;50.824;7.134;2022-09-09T03:47:31;16.70;99.90
20068;DHT22;10194;50.824;7.134;2022-09-09T03:49:57;16.70;99.90
20068;DHT22;10194;50.824;7.134;2022-09-09T03:52:23;16.70;99.90
20068;DHT22;10194;50.824;7.134;2022-09-09T03:54:51;16.70;99.90
20068;DHT22;10194;50.824;7.134;2022-09-09T03:57:17;16.70;99.90
20068;DHT22;10194;50.824;7.134;2022-09-09T03:59:43;16.70;99.90
20068;DHT22;10194;50.824;7.134;2022-09-09T04:02:09;16.70;99.90
20068;DHT22;10194;50.824;7.134;2022-09-09T04:04:35;16.70;99.90
20068;DHT22;10194;50.824;7.134;2022-09-09T04:07:01;16.70;99.90
20068;DHT22;10194;50.824;7.134;2022-09-09T04:09:27;16.80;99.90
20068;DHT22;10194;50.824;7.134;2022-09-09T04:11:53;16.90;99.90
20068;DHT22;10194;50.824;7.134;2022-09-09T04:14:20;16.90;99.90
20068;DHT22;10194;50.824;7.134;2022-09-09T04:16:46;16.90;99.90
20068;DHT22;10194;50.824;7.134;2022-09-09T04:19:13;17.00;99.90
20068;DHT22;10194;50.824;7.134;2022-09-09T04:21:42;16.90;99.90
20068;DHT22;10194;50.824;7.134;2022-09-09T04:24:08;16.90;99.90
20068;DHT22;10194;50.824;7.134;2022-09-09T04:26:35;16.90;99.90
20068;DHT22;10194;50.824;7.134;2022-09-09T04:29:02;16.90;99.90
20068;DHT22;10194;50.824;7.134;2022-09-09T04:31:29;16.90;99.90
20068;DHT22;10194;50.824;7.134;2022-09-09T04:33:55;17.00;99.90
20068;DHT22;10194;50.824;7.134;2022-09-09T04:36:21;17.00;99.90
20068;DHT22;10194;50.824;7.134;2022-09-09T04:38:47;17.00;99.90
20068;DHT22;10194;50.824;7.134;2022-09-09T04:41:16;17.00;99.90
20068;DHT22;10194;50.824;7.134;2022-09-09T04:43:42;17.10;99.90
20068;DHT22;10194;50.824;7.134;2022-09-09T04:46:08;17.00;99.90
20068;DHT22;10194;50.824;7.134;2022-09-09T04:48:34;17.00;99.90
20068;DHT22;10194;50.824;7.134;2022-09-09T04:51:08;16.90;99.90
20068;DHT22;10194;50.824;7.134;2022-09-09T04:53:35;16.90;99.90
20068;DHT22;10194;50.824;7.134;2022-09-09T04:56:03;17.00;99.90
20068;DHT22;10194;50.824;7.134;2022-09-09T04:58:36;17.00;99.90
20068;DHT22;10194;50.824;7.134;2022-09-09T05:01:06;17.00;99.90
20068;DHT22;10194;50.824;7.134;2022-09-09T05:03:32;17.00;99.90
20068;DHT22;10194;50.824;7.134;2022-09-09T05:06:21;17.00;99.90
20068;DHT22;10194;50.824;7.134;2022-09-09T05:08:47;17.10;99.90
20068;DHT22;10194;50.824;7.134;2022-09-09T05:11:18;17.10;99.90
20068;DHT22;10194;50.824;7.134;2022-09-09T05:13:50;17.10;99.90
20068;DHT22;10194;50.824;7.134;2022-09-09T05:16:16;17.10;99.90
20068;DHT22;10194;50.824;7.134;2022-09-09T05:18:43;17.00;99.90
20068;DHT22;10194;50.824;7.134;2022-09-09T05:21:11;17.00;99.90
20068;DHT22;10194;50.824;7.134;2022-09-09T05:23:38;17.00;99.90
20068;DHT22;10194;50.824;7.134;2022-09-09T05:26:05;17.10;99.90
20068;DHT22;10194;50.824;7.134;2022-09-09T05:28:34;17.10;99.90
20068;DHT22;10194;50.824;7.134;2022-09-09T05:31:06;17.10;99.90
20068;DHT22;10194;50.824;7.134;2022-09-09T05:33:39;17.10;99.90
20068;DHT22;10194;50.824;7.134;2022-09-09T05:36:10;17.10;99.90
20068;DHT22;10194;50.824;7.134;2022-09-09T05:38:40;17.20;99.90
20068;DHT22;10194;50.824;7.134;2022-09-09T05:41:07;17.20;99.90
20068;DHT22;10194;50.824;7.134;2022-09-09T05:43:33;17.10;99.90
20068;DHT22;10194;50.824;7.134;2022-09-09T05:46:11;17.20;99.90
20068;DHT22;10194;50.824;7.134;2022-09-09T05:48:48;17.20;99.90
20068;DHT22;10194;50.824;7.134;2022-09-09T05:51:21;17.20;99.90
20068;DHT22;10194;50.824;7.134;2022-09-09T05:53:50;17.10;99.90
20068;DHT22;10194;50.824;7.134;2022-09-09T05:56:22;17.20;99.90
20068;DHT22;10194;50.824;7.134;2022-09-09T05:58:51;17.20;99.90
20068;DHT22;10194;50.824;7.134;2022-09-09T06:01:30;17.30;99.90
20068;DHT22;10194;50.824;7.134;2022-09-09T06:03:58;17.30;99.90
20068;DHT22;10194;50.824;7.134;2022-09-09T06:06:31;17.40;99.90
20068;DHT22;10194;50.824;7.134;2022-09-09T06:09:03;17.30;99.90
20068;DHT22;10194;50.824;7.134;2022-09-09T06:11:33;17.30;99.90
20068;DHT22;10194;50.824;7.134;2022-09-09T06:14:01;17.40;99.90
20068;DHT22;10194;50.824;7.134;2022-09-09T06:16:28;17.40;99.90
20068;DHT22;10194;50.824;7.134;2022-09-09T06:18:56;17.50;99.90
20068;DHT22;10194;50.824;7.134;2022-09-09T06:21:31;17.60;99.90
20068;DHT22;10194;50.824;7.134;2022-09-09T06:24:00;17.70;99.90
20068;DHT22;10194;50.824;7.134;2022-09-09T06:26:31;17.80;99.90
20068;DHT22;10194;50.824;7.134;2022-09-09T06:28:58;17.90;99.90
20068;DHT22;10194;50.824;7.134;2022-09-09T06:31:27;18.10;99.90
20068;DHT22;10194;50.824;7.134;2022-09-09T06:33:56;18.30;99.90
20068;DHT22;10194;50.824;7.134;2022-09-09T06:36:24;18.50;99.90
20068;DHT22;10194;50.824;7.134;2022-09-09T06:38:52;19.10;99.90
20068;DHT22;10194;50.824;7.134;2022-09-09T06:41:19;20.10;99.90
20068;DHT22;10194;50.824;7.134;2022-09-09T06:43:46;21.50;99.90
20068;DHT22;10194;50.824;7.134;2022-09-09T06:46:17;22.60;99.90
20068;DHT22;10194;50.824;7.134;2022-09-09T06:48:45;22.00;99.90
20068;DHT22;10194;50.824;7.134;2022-09-09T06:53:45;20.40;99.90
20068;DHT22;10194;50.824;7.134;2022-09-09T06:56:17;21.00;99.90
20068;DHT22;10194;50.824;7.134;2022-09-09T06:58:44;23.30;99.90
20068;DHT22;10194;50.824;7.134;2022-09-09T07:01:12;24.70;99.90
20068;DHT22;10194;50.824;7.134;2022-09-09T07:03:40;27.40;95.50
20068;DHT22;10194;50.824;7.134;2022-09-09T07:06:07;29.40;85.10
20068;DHT22;10194;50.824;7.134;2022-09-09T07:08:33;29.60;81.60
20068;DHT22;10194;50.824;7.134;2022-09-09T07:11:04;30.70;78.60
20068;DHT22;10194;50.824;7.134;2022-09-09T07:13:32;31.70;72.50
20068;DHT22;10194;50.824;7.134;2022-09-09T07:16:08;31.60;67.60
20068;DHT22;10194;50.824;7.134;2022-09-09T07:18:40;29.90;72.70
20068;DHT22;10194;50.824;7.134;2022-09-09T07:21:06;30.50;70.90
20068;DHT22;10194;50.824;7.134;2022-09-09T07:23:33;31.70;66.20
20068;DHT22;10194;50.824;7.134;2022-09-09T07:26:02;31.90;67.00
20068;DHT22;10194;50.824;7.134;2022-09-09T07:28:28;28.70;75.70
20068;DHT22;10194;50.824;7.134;2022-09-09T07:30:58;26.10;90.00
20068;DHT22;10194;50.824;7.134;2022-09-09T07:33:27;24.70;91.70
20068;DHT22;10194;50.824;7.134;2022-09-09T07:38:44;23.00;98.10
20068;DHT22;10194;50.824;7.134;2022-09-09T07:41:14;23.00;99.20
20068;DHT22;10194;50.824;7.134;2022-09-09T07:43:44;23.00;99.50
20068;DHT22;10194;50.824;7.134;2022-09-09T07:46:12;23.40;99.40
20068;DHT22;10194;50.824;7.134;2022-09-09T07:48:47;23.10;99.10
20068;DHT22;10194;50.824;7.134;2022-09-09T07:51:20;22.70;99.30
20068;DHT22;10194;50.824;7.134;2022-09-09T07:53:55;22.60;99.90
20068;DHT22;10194;50.824;7.134;2022-09-09T07:56:31;22.40;99.90
20068;DHT22;10194;50.824;7.134;2022-09-09T07:58:58;21.90;99.90
20068;DHT22;10194;50.824;7.134;2022-09-09T08:01:30;21.60;99.90
20068;DHT22;10194;50.824;7.134;2022-09-09T08:04:03;21.60;99.90
20068;DHT22;10194;50.824;7.134;2022-09-09T08:06:33;21.50;99.90
20068;DHT22;10194;50.824;7.134;2022-09-09T08:09:02;21.20;99.90
20068;DHT22;10194;50.824;7.134;2022-09-09T08:11:30;20.90;99.90
20068;DHT22;10194;50.824;7.134;2022-09-09T08:13:56;20.70;99.90
20068;DHT22;10194;50.824;7.134;2022-09-09T08:16:24;20.60;99.90
20068;DHT22;10194;50.824;7.134;2022-09-09T08:18:52;20.60;99.90
20068;DHT22;10194;50.824;7.134;2022-09-09T08:21:22;20.60;99.90
20068;DHT22;10194;50.824;7.134;2022-09-09T08:23:51;20.60;99.90
20068;DHT22;10194;50.824;7.134;2022-09-09T08:26:24;20.60;99.90
20068;DHT22;10194;50.824;7.134;2022-09-09T08:28:55;20.90;99.90
20068;DHT22;10194;50.824;7.134;2022-09-09T08:31:27;20.80;99.90
20068;DHT22;10194;50.824;7.134;2022-09-09T08:33:59;20.90;99.90
20068;DHT22;10194;50.824;7.134;2022-09-09T08:36:27;21.00;99.90
20068;DHT22;10194;50.824;7.134;2022-09-09T08:38:56;21.10;99.90
20068;DHT22;10194;50.824;7.134;2022-09-09T08:50:19;20.70;99.90
20068;DHT22;10194;50.824;7.134;2022-09-09T08:55:53;20.70;99.90
20068;DHT22;10194;50.824;7.134;2022-09-09T08:58:25;20.80;99.90
20068;DHT22;10194;50.824;7.134;2022-09-09T09:12:17;20.90;99.90
20068;DHT22;10194;50.824;7.134;2022-09-09T09:14:46;20.80;99.90
20068;DHT22;10194;50.824;7.134;2022-09-09T09:17:21;21.00;99.90
20068;DHT22;10194;50.824;7.134;2022-09-09T09:19:49;21.20;99.90
20068;DHT22;10194;50.824;7.134;2022-09-09T09:22:19;21.20;99.90
20068;DHT22;10194;50.824;7.134;2022-09-09T09:25:08;21.30;99.90
20068;DHT22;10194;50.824;7.134;2022-09-09T09:27:58;21.40;99.90
20068;DHT22;10194;50.824;7.134;2022-09-09T09:30:39;21.40;99.90
20068;DHT22;10194;50.824;7.134;2022-09-09T09:33:26;21.40;99.90
20068;DHT22;10194;50.824;7.134;2022-09-09T09:35:53;21.20;99.90
20068;DHT22;10194;50.824;7.134;2022-09-09T09:38:26;20.90;99.90
20068;DHT22;10194;50.824;7.134;2022-09-09T09:40:57;20.80;99.90
20068;DHT22;10194;50.824;7.134;2022-09-09T09:43:35;20.90;99.90
20068;DHT22;10194;50.824;7.134;2022-09-09T09:46:16;20.90;99.90
20068;DHT22;10194;50.824;7.134;2022-09-09T09:48:45;21.10;99.90
20068;DHT22;10194;50.824;7.134;2022-09-09T09:51:14;21.30;99.90
20068;DHT22;10194;50.824;7.134;2022-09-09T09:53:41;21.30;99.90
20068;DHT22;10194;50.824;7.134;2022-09-09T09:56:13;21.40;99.80
20068;DHT22;10194;50.824;7.134;2022-09-09T10:01:31;21.60;99.70
20068;DHT22;10194;50.824;7.134;2022-09-09T10:04:02;21.40;99.00
20068;DHT22;10194;50.824;7.134;2022-09-09T10:06:39;21.50;99.40
20068;DHT22;10194;50.824;7.134;2022-09-09T10:09:25;21.80;98.80
20068;DHT22;10194;50.824;7.134;2022-09-09T10:14:54;22.10;97.90
20068;DHT22;10194;50.824;7.134;2022-09-09T10:21:10;22.10;97.70
20068;DHT22;10194;50.824;7.134;2022-09-09T10:23:46;22.20;96.70
20068;DHT22;10194;50.824;7.134;2022-09-09T10:26:35;22.10;97.50
20068;DHT22;10194;50.824;7.134;2022-09-09T10:54:33;21.70;98.50
20068;DHT22;10194;50.824;7.134;2022-09-09T11:00:03;22.00;98.60
20068;DHT22;10194;50.824;7.134;2022-09-09T11:02:34;22.20;98.00
20068;DHT22;10194;50.824;7.134;2022-09-09T11:08:24;22.50;97.30
20068;DHT22;10194;50.824;7.134;2022-09-09T11:11:04;22.70;96.20
20068;DHT22;10194;50.824;7.134;2022-09-09T11:19:13;23.10;95.90
20068;DHT22;10194;50.824;7.134;2022-09-09T11:21:47;22.80;94.60
20068;DHT22;10194;50.824;7.134;2022-09-09T11:24:31;22.60;96.30
20068;DHT22;10194;50.824;7.134;2022-09-09T11:27:27;22.50;97.30
20068;DHT22;10194;50.824;7.134;2022-09-09T11:42:46;22.50;95.90
20068;DHT22;10194;50.824;7.134;2022-09-09T11:45:24;22.40;96.00
20068;DHT22;10194;50.824;7.134;2022-09-09T11:47:56;22.20;95.20
20068;DHT22;10194;50.824;7.134;2022-09-09T11:52:49;22.20;95.80
20068;DHT22;10194;50.824;7.134;2022-09-09T11:55:26;22.30;95.80
20068;DHT22;10194;50.824;7.134;2022-09-09T11:58:00;22.40;96.20
20068;DHT22;10194;50.824;7.134;2022-09-09T12:00:43;22.40;95.20
20068;DHT22;10194;50.824;7.134;2022-09-09T12:06:29;22.20;96.20
20068;DHT22;10194;50.824;7.134;2022-09-09T12:09:08;22.20;96.70
20068;DHT22;10194;50.824;7.134;2022-09-09T12:11:45;22.40;95.50
20068;DHT22;10194;50.824;7.134;2022-09-09T12:14:37;22.40;95.20
20068;DHT22;10194;50.824;7.134;2022-09-09T12:17:19;22.40;95.70
20068;DHT22;10194;50.824;7.134;2022-09-09T12:19:47;22.30;95.80
20068;DHT22;10194;50.824;7.134;2022-09-09T12:24:57;22.20;96.10
20068;DHT22;10194;50.824;7.134;2022-09-09T12:30:29;22.30;94.80
20068;DHT22;10194;50.824;7.134;2022-09-09T12:33:06;22.30;94.90
20068;DHT22;10194;50.824;7.134;2022-09-09T12:35:37;22.40;95.30
20068;DHT22;10194;50.824;7.134;2022-09-09T12:38:05;22.50;95.10
20068;DHT22;10194;50.824;7.134;2022-09-09T12:40:36;22.40;95.40
20068;DHT22;10194;50.824;7.134;2022-09-09T12:43:20;22.20;95.50
20068;DHT22;10194;50.824;7.134;2022-09-09T12:45:47;22.10;95.20
20068;DHT22;10194;50.824;7.134;2022-09-09T12:48:16;22.40;94.50
20068;DHT22;10194;50.824;7.134;2022-09-09T12:50:50;22.10;95.20
20068;DHT22;10194;50.824;7.134;2022-09-09T12:54:14;21.90;96.30
20068;DHT22;10194;50.824;7.134;2022-09-09T12:57:44;21.90;96.50
20068;DHT22;10194;50.824;7.134;2022-09-09T13:01:17;22.20;96.60
20068;DHT22;10194;50.824;7.134;2022-09-09T13:04:47;22.30;95.00
20068;DHT22;10194;50.824;7.134;2022-09-09T13:08:13;22.20;95.50
20068;DHT22;10194;50.824;7.134;2022-09-09T13:11:38;22.00;96.30
20068;DHT22;10194;50.824;7.134;2022-09-09T13:15:03;21.80;96.40
20068;DHT22;10194;50.824;7.134;2022-09-09T13:18:30;21.50;96.90
20068;DHT22;10194;50.824;7.134;2022-09-09T13:21:57;21.40;96.90
20068;DHT22;10194;50.824;7.134;2022-09-09T13:28:53;21.30;97.90
20068;DHT22;10194;50.824;7.134;2022-09-09T13:32:22;21.40;98.20
20068;DHT22;10194;50.824;7.134;2022-09-09T13:35:58;21.90;97.30
20068;DHT22;10194;50.824;7.134;2022-09-09T13:39:28;22.20;97.10
20068;DHT22;10194;50.824;7.134;2022-09-09T13:42:56;22.30;96.10
20068;DHT22;10194;50.824;7.134;2022-09-09T13:46:36;22.40;99.90
20068;DHT22;10194;50.824;7.134;2022-09-09T13:50:20;22.30;99.90
20068;DHT22;10194;50.824;7.134;2022-09-09T13:54:11;22.40;99.00
20068;DHT22;10194;50.824;7.134;2022-09-09T13:57:35;22.40;97.90
20068;DHT22;10194;50.824;7.134;2022-09-09T14:00:59;22.20;97.90
20068;DHT22;10194;50.824;7.134;2022-09-09T14:04:24;22.10;98.00
20068;DHT22;10194;50.824;7.134;2022-09-09T14:07:48;22.30;97.70
20068;DHT22;10194;50.824;7.134;2022-09-09T14:13:37;22.30;98.10
20068;DHT22;10194;50.824;7.134;2022-09-09T14:16:03;22.00;99.50
20068;DHT22;10194;50.824;7.134;2022-09-09T14:18:28;21.80;99.90
20068;DHT22;10194;50.824;7.134;2022-09-09T14:20:54;21.70;99.90
20068;DHT22;10194;50.824;7.134;2022-09-09T14:23:20;21.70;99.90
20068;DHT22;10194;50.824;7.134;2022-09-09T14:25:47;21.70;99.90
20068;DHT22;10194;50.824;7.134;2022-09-09T14:28:13;21.60;99.90
20068;DHT22;10194;50.824;7.134;2022-09-09T14:30:39;21.70;99.90
20068;DHT22;10194;50.824;7.134;2022-09-09T14:33:05;21.70;99.90
20068;DHT22;10194;50.824;7.134;2022-09-09T14:35:31;21.70;99.90
20068;DHT22;10194;50.824;7.134;2022-09-09T14:37:58;21.80;99.90
20068;DHT22;10194;50.824;7.134;2022-09-09T14:40:24;21.90;99.90
20068;DHT22;10194;50.824;7.134;2022-09-09T14:42:49;22.00;99.90
20068;DHT22;10194;50.824;7.134;2022-09-09T14:45:15;22.10;99.70
20068;DHT22;10194;50.824;7.134;2022-09-09T14:47:40;22.10;99.70
20068;DHT22;10194;50.824;7.134;2022-09-09T14:50:06;22.00;99.70
20068;DHT22;10194;50.824;7.134;2022-09-09T14:52:33;21.80;99.90
20068;DHT22;10194;50.824;7.134;2022-09-09T14:54:58;21.70;99.40
20068;DHT22;10194;50.824;7.134;2022-09-09T14:57:24;21.90;99.60
20068;DHT22;10194;50.824;7.134;2022-09-09T14:59:49;22.10;98.40
20068;DHT22;10194;50.824;7.134;2022-09-09T15:02:15;22.10;99.10
20068;DHT22;10194;50.824;7.134;2022-09-09T15:04:41;21.90;99.60
20068;DHT22;10194;50.824;7.134;2022-09-09T15:07:07;21.70;99.70
20068;DHT22;10194;50.824;7.134;2022-09-09T15:09:32;21.60;99.90
20068;DHT22;10194;50.824;7.134;2022-09-09T15:11:58;21.40;99.90
20068;DHT22;10194;50.824;7.134;2022-09-09T15:14:24;21.40;99.90
20068;DHT22;10194;50.824;7.134;2022-09-09T15:16:51;21.30;99.90
20068;DHT22;10194;50.824;7.134;2022-09-09T15:19:16;21.40;99.90
20068;DHT22;10194;50.824;7.134;2022-09-09T15:21:42;21.40;99.90
20068;DHT22;10194;50.824;7.134;2022-09-09T15:24:07;21.40;99.90
20068;DHT22;10194;50.824;7.134;2022-09-09T15:26:33;21.30;99.90
20068;DHT22;10194;50.824;7.134;2022-09-09T15:28:59;21.20;99.90
20068;DHT22;10194;50.824;7.134;2022-09-09T15:31:28;21.10;99.90
20068;DHT22;10194;50.824;7.134;2022-09-09T15:33:55;20.90;99.90
20068;DHT22;10194;50.824;7.134;2022-09-09T15:36:30;20.50;99.90
20068;DHT22;10194;50.824;7.134;2022-09-09T15:38:57;20.10;99.90
20068;DHT22;10194;50.824;7.134;2022-09-09T15:41:23;19.70;99.90
20068;DHT22;10194;50.824;7.134;2022-09-09T15:43:50;19.30;99.90
20068;DHT22;10194;50.824;7.134;2022-09-09T15:48:41;18.70;99.90
20068;DHT22;10194;50.824;7.134;2022-09-09T15:51:08;18.70;99.90
20068;DHT22;10194;50.824;7.134;2022-09-09T15:53:35;18.60;99.90
20068;DHT22;10194;50.824;7.134;2022-09-09T15:56:00;18.50;99.90
20068;DHT22;10194;50.824;7.134;2022-09-09T15:58:29;18.50;99.90
20068;DHT22;10194;50.824;7.134;2022-09-09T16:01:01;18.50;99.90
20068;DHT22;10194;50.824;7.134;2022-09-09T16:03:26;18.40;99.90
20068;DHT22;10194;50.824;7.134;2022-09-09T16:05:52;18.40;99.90
20068;DHT22;10194;50.824;7.134;2022-09-09T16:08:17;18.30;99.90
20068;DHT22;10194;50.824;7.134;2022-09-09T16:10:43;18.10;99.90
20068;DHT22;10194;50.824;7.134;2022-09-09T16:13:09;18.10;99.90
20068;DHT22;10194;50.824;7.134;2022-09-09T16:15:34;18.00;99.90
20068;DHT22;10194;50.824;7.134;2022-09-09T16:18:00;18.00;99.90
20068;DHT22;10194;50.824;7.134;2022-09-09T16:20:25;18.00;99.90
20068;DHT22;10194;50.824;7.134;2022-09-09T16:22:51;17.90;99.90
20068;DHT22;10194;50.824;7.134;2022-09-09T16:25:16;17.70;99.90
20068;DHT22;10194;50.824;7.134;2022-09-09T16:27:43;17.70;99.90
20068;DHT22;10194;50.824;7.134;2022-09-09T16:30:09;17.70;99.90
20068;DHT22;10194;50.824;7.134;2022-09-09T16:32:35;17.80;99.90
20068;DHT22;10194;50.824;7.134;2022-09-09T16:35:00;17.80;99.90
20068;DHT22;10194;50.824;7.134;2022-09-09T16:37:26;17.70;99.90
20068;DHT22;10194;50.824;7.134;2022-09-09T16:39:51;17.60;99.90
20068;DHT22;10194;50.824;7.134;2022-09-09T16:42:17;17.60;99.90
20068;DHT22;10194;50.824;7.134;2022-09-09T16:44:42;17.50;99.90
20068;DHT22;10194;50.824;7.134;2022-09-09T16:47:08;17.50;99.90
20068;DHT22;10194;50.824;7.134;2022-09-09T16:49:33;17.60;99.90
20068;DHT22;10194;50.824;7.134;2022-09-09T16:51:59;17.60;99.90
20068;DHT22;10194;50.824;7.134;2022-09-09T16:54:25;17.50;99.90
20068;DHT22;10194;50.824;7.134;2022-09-09T16:56:52;17.50;99.90
20068;DHT22;10194;50.824;7.134;2022-09-09T16:59:18;17.40;99.90
20068;DHT22;10194;50.824;7.134;2022-09-09T17:01:45;17.40;99.90
20068;DHT22;10194;50.824;7.134;2022-09-09T17:04:12;17.50;99.90
20068;DHT22;10194;50.824;7.134;2022-09-09T17:06:39;17.70;99.90
20068;DHT22;10194;50.824;7.134;2022-09-09T17:09:07;17.60;99.90
20068;DHT22;10194;50.824;7.134;2022-09-09T17:11:32;17.60;99.90
20068;DHT22;10194;50.824;7.134;2022-09-09T17:13:58;17.70;99.90
20068;DHT22;10194;50.824;7.134;2022-09-09T17:16:24;17.70;99.90
20068;DHT22;10194;50.824;7.134;2022-09-09T17:18:52;17.70;99.90
20068;DHT22;10194;50.824;7.134;2022-09-09T17:21:20;17.80;99.90
20068;DHT22;10194;50.824;7.134;2022-09-09T17:23:45;17.70;99.90
20068;DHT22;10194;50.824;7.134;2022-09-09T17:26:12;17.60;99.90
20068;DHT22;10194;50.824;7.134;2022-09-09T17:28:38;17.50;99.90
20068;DHT22;10194;50.824;7.134;2022-09-09T17:31:04;17.50;99.90
20068;DHT22;10194;50.824;7.134;2022-09-09T17:33:35;17.40;99.90
20068;DHT22;10194;50.824;7.134;2022-09-09T17:36:02;17.30;99.90
20068;DHT22;10194;50.824;7.134;2022-09-09T17:38:31;17.40;99.90
20068;DHT22;10194;50.824;7.134;2022-09-09T17:43:49;17.40;99.90
20068;DHT22;10194;50.824;7.134;2022-09-09T17:46:19;17.30;99.90
20068;DHT22;10194;50.824;7.134;2022-09-09T17:48:46;17.20;99.90
20068;DHT22;10194;50.824;7.134;2022-09-09T17:51:13;17.20;99.90
20068;DHT22;10194;50.824;7.134;2022-09-09T17:53:40;17.10;99.90
20068;DHT22;10194;50.824;7.134;2022-09-09T17:56:07;17.00;99.90
20068;DHT22;10194;50.824;7.134;2022-09-09T17:58:34;17.00;99.90
20068;DHT22;10194;50.824;7.134;2022-09-09T18:01:07;16.90;99.90
20068;DHT22;10194;50.824;7.134;2022-09-09T18:03:34;16.90;99.90
20068;DHT22;10194;50.824;7.134;2022-09-09T18:06:01;16.80;99.90
20068;DHT22;10194;50.824;7.134;2022-09-09T18:08:27;16.80;99.90
20068;DHT22;10194;50.824;7.134;2022-09-09T18:10:54;16.80;99.90
20068;DHT22;10194;50.824;7.134;2022-09-09T18:13:20;16.70;99.90
20068;DHT22;10194;50.824;7.134;2022-09-09T18:15:45;16.70;99.90
20068;DHT22;10194;50.824;7.134;2022-09-09T18:18:11;16.70;99.90
20068;DHT22;10194;50.824;7.134;2022-09-09T18:20:36;16.70;99.90
20068;DHT22;10194;50.824;7.134;2022-09-09T18:23:02;16.80;99.90
20068;DHT22;10194;50.824;7.134;2022-09-09T18:25:27;16.80;99.90
20068;DHT22;10194;50.824;7.134;2022-09-09T18:27:53;16.80;99.90
20068;DHT22;10194;50.824;7.134;2022-09-09T18:30:19;16.90;99.90
20068;DHT22;10194;50.824;7.134;2022-09-09T18:32:47;16.90;99.90
20068;DHT22;10194;50.824;7.134;2022-09-09T18:35:13;16.90;99.90
20068;DHT22;10194;50.824;7.134;2022-09-09T18:37:38;17.00;99.90
20068;DHT22;10194;50.824;7.134;2022-09-09T18:40:04;17.00;99.90
20068;DHT22;10194;50.824;7.134;2022-09-09T18:42:29;16.90;99.90